sensor_id;sensor_type;location;lat;lon;timestamp;temperature;humidity
3424;DHT22;72707;50.120;8.500;2024-03-17T00:02:20;6.70;1.00
3424;DHT22;72707;50.120;8.500;2024-03-17T00:04:45;6.80;1.00
3424;DHT22;72707;50.120;8.500;2024-03-17T00:07:12;6.80;1.00
3424;DHT22;72707;50.120;8.500;2024-03-17T00:12:04;6.90;1.00
3424;DHT22;72707;50.120;8.500;2024-03-17T00:14:29;6.80;1.00
3424;DHT22;72707;50.120;8.500;2024-03-17T00:16:55;6.70;1.00
3424;DHT22;72707;50.120;8.500;2024-03-17T00:19:20;6.60;1.00
3424;DHT22;72707;50.120;8.500;2024-03-17T00:21:49;6.70;1.00
3424;DHT22;72707;50.120;8.500;2024-03-17T00:26:42;6.50;1.00
3424;DHT22;72707;50.120;8.500;2024-03-17T00:29:07;6.50;1.00
3424;DHT22;72707;50.120;8.500;2024-03-17T00:31:33;6.50;1.00
3424;DHT22;72707;50.120;8.500;2024-03-17T00:38:50;6.30;1.00
3424;DHT22;72707;50.120;8.500;2024-03-17T00:43:44;6.30;1.00
3424;DHT22;72707;50.120;8.500;2024-03-17T00:46:10;6.20;1.00
3424;DHT22;72707;50.120;8.500;2024-03-17T00:48:35;6.20;55.90
3424;DHT22;72707;50.120;8.500;2024-03-17T00:51:01;6.10;36.40
3424;DHT22;72707;50.120;8.500;2024-03-17T00:53:27;6.00;57.20
3424;DHT22;72707;50.120;8.500;2024-03-17T00:55:54;6.00;99.90
3424;DHT22;72707;50.120;8.500;2024-03-17T00:58:20;6.10;99.90
3424;DHT22;72707;50.120;8.500;2024-03-17T01:00:46;6.10;73.40
3424;DHT22;72707;50.120;8.500;2024-03-17T01:03:14;6.00;75.80
3424;DHT22;72707;50.120;8.500;2024-03-17T01:05:40;5.90;99.90
3424;DHT22;72707;50.120;8.500;2024-03-17T01:08:08;5.90;58.50
3424;DHT22;72707;50.120;8.500;2024-03-17T01:10:37;5.70;99.90
3424;DHT22;72707;50.120;8.500;2024-03-17T01:13:03;5.70;99.90
3424;DHT22;72707;50.120;8.500;2024-03-17T01:15:29;5.60;99.90
3424;DHT22;72707;50.120;8.500;2024-03-17T01:17:54;5.50;99.90
3424;DHT22;72707;50.120;8.500;2024-03-17T01:20:20;5.50;99.90
3424;DHT22;72707;50.120;8.500;2024-03-17T01:22:45;5.40;99.90
3424;DHT22;72707;50.120;8.500;2024-03-17T01:27:38;5.30;1.00
3424;DHT22;72707;50.120;8.500;2024-03-17T01:30:04;5.30;1.00
3424;DHT22;72707;50.120;8.500;2024-03-17T01:34:56;5.10;1.00
3424;DHT22;72707;50.120;8.500;2024-03-17T01:37:22;5.10;1.00
3424;DHT22;72707;50.120;8.500;2024-03-17T01:39:47;5.10;1.00
3424;DHT22;72707;50.120;8.500;2024-03-17T01:42:14;5.10;1.00
3424;DHT22;72707;50.120;8.500;2024-03-17T01:44:40;5.00;1.00
3424;DHT22;72707;50.120;8.500;2024-03-17T01:47:05;4.90;1.00
3424;DHT22;72707;50.120;8.500;2024-03-17T01:49:32;4.80;1.00
3424;DHT22;72707;50.120;8.500;2024-03-17T01:51:58;4.90;1.00
3424;DHT22;72707;50.120;8.500;2024-03-17T01:54:23;4.80;1.00
3424;DHT22;72707;50.120;8.500;2024-03-17T01:56:49;4.80;1.00
3424;DHT22;72707;50.120;8.500;2024-03-17T01:59:14;4.70;1.00
3424;DHT22;72707;50.120;8.500;2024-03-17T02:04:06;4.70;1.00
3424;DHT22;72707;50.120;8.500;2024-03-17T02:08:58;4.70;1.00
3424;DHT22;72707;50.120;8.500;2024-03-17T02:11:28;4.70;1.00
3424;DHT22;72707;50.120;8.500;2024-03-17T02:13:54;4.60;1.00
3424;DHT22;72707;50.120;8.500;2024-03-17T02:16:21;4.50;1.00
3424;DHT22;72707;50.120;8.500;2024-03-17T02:18:47;4.40;1.00
3424;DHT22;72707;50.120;8.500;2024-03-17T02:21:13;4.40;1.00
3424;DHT22;72707;50.120;8.500;2024-03-17T02:23:41;4.30;1.00
3424;DHT22;72707;50.120;8.500;2024-03-17T02:28:40;4.20;1.00
3424;DHT22;72707;50.120;8.500;2024-03-17T02:31:07;4.20;1.00
3424;DHT22;72707;50.120;8.500;2024-03-17T02:33:32;4.10;1.00
3424;DHT22;72707;50.120;8.500;2024-03-17T02:35:58;4.10;1.00
3424;DHT22;72707;50.120;8.500;2024-03-17T02:38:25;4.10;1.00
3424;DHT22;72707;50.120;8.500;2024-03-17T02:41:08;4.10;1.00
3424;DHT22;72707;50.120;8.500;2024-03-17T02:43:34;4.00;1.00
3424;DHT22;72707;50.120;8.500;2024-03-17T02:46:01;4.00;1.00
3424;DHT22;72707;50.120;8.500;2024-03-17T02:48:30;3.90;1.00
3424;DHT22;72707;50.120;8.500;2024-03-17T02:50:56;3.90;1.00
3424;DHT22;72707;50.120;8.500;2024-03-17T02:53:21;3.80;1.00
3424;DHT22;72707;50.120;8.500;2024-03-17T02:58:13;3.70;1.00
3424;DHT22;72707;50.120;8.500;2024-03-17T03:00:38;3.70;1.00
3424;DHT22;72707;50.120;8.500;2024-03-17T03:03:05;3.60;1.00
3424;DHT22;72707;50.120;8.500;2024-03-17T03:05:31;3.60;8.40
3424;DHT22;72707;50.120;8.500;2024-03-17T03:07:56;3.60;38.40
3424;DHT22;72707;50.120;8.500;2024-03-17T03:12:47;3.50;99.90
3424;DHT22;72707;50.120;8.500;2024-03-17T03:15:13;3.50;99.90
3424;DHT22;72707;50.120;8.500;2024-03-17T03:17:38;3.50;99.90
3424;DHT22;72707;50.120;8.500;2024-03-17T03:20:05;3.50;89.70
3424;DHT22;72707;50.120;8.500;2024-03-17T03:22:31;3.50;91.50
3424;DHT22;72707;50.120;8.500;2024-03-17T03:24:56;3.50;92.60
3424;DHT22;72707;50.120;8.500;2024-03-17T03:27:23;3.50;69.20
3424;DHT22;72707;50.120;8.500;2024-03-17T03:29:49;3.40;99.90
3424;DHT22;72707;50.120;8.500;2024-03-17T03:32:15;3.40;99.90
3424;DHT22;72707;50.120;8.500;2024-03-17T03:34:41;3.40;99.90
3424;DHT22;72707;50.120;8.500;2024-03-17T03:37:06;3.40;99.90
3424;DHT22;72707;50.120;8.500;2024-03-17T03:39:33;3.50;98.60
3424;DHT22;72707;50.120;8.500;2024-03-17T03:42:01;3.40;1.00
3424;DHT22;72707;50.120;8.500;2024-03-17T03:44:27;3.40;1.00
3424;DHT22;72707;50.120;8.500;2024-03-17T03:49:24;3.40;1.00
3424;DHT22;72707;50.120;8.500;2024-03-17T03:51:50;3.50;1.00
3424;DHT22;72707;50.120;8.500;2024-03-17T03:59:07;3.40;1.00
3424;DHT22;72707;50.120;8.500;2024-03-17T04:01:33;3.40;1.00
3424;DHT22;72707;50.120;8.500;2024-03-17T04:03:58;3.40;1.00
3424;DHT22;72707;50.120;8.500;2024-03-17T04:06:24;3.30;1.00
3424;DHT22;72707;50.120;8.500;2024-03-17T04:08:49;3.20;31.60
3424;DHT22;72707;50.120;8.500;2024-03-17T04:11:15;3.20;99.90
3424;DHT22;72707;50.120;8.500;2024-03-17T04:13:41;3.10;99.90
3424;DHT22;72707;50.120;8.500;2024-03-17T04:16:07;3.00;99.90
3424;DHT22;72707;50.120;8.500;2024-03-17T04:18:33;3.00;99.90
3424;DHT22;72707;50.120;8.500;2024-03-17T04:21:04;3.10;99.90
3424;DHT22;72707;50.120;8.500;2024-03-17T04:23:30;3.10;99.90
3424;DHT22;72707;50.120;8.500;2024-03-17T04:25:57;3.10;99.90
3424;DHT22;72707;50.120;8.500;2024-03-17T04:33:15;3.20;99.90
3424;DHT22;72707;50.120;8.500;2024-03-17T04:35:42;3.20;99.90
3424;DHT22;72707;50.120;8.500;2024-03-17T04:38:07;3.20;99.90
3424;DHT22;72707;50.120;8.500;2024-03-17T04:43:00;3.10;99.90
3424;DHT22;72707;50.120;8.500;2024-03-17T04:45:26;3.10;99.90
3424;DHT22;72707;50.120;8.500;2024-03-17T04:47:52;3.10;99.90
3424;DHT22;72707;50.120;8.500;2024-03-17T04:50:17;3.10;99.90
3424;DHT22;72707;50.120;8.500;2024-03-17T04:55:10;3.10;99.90
3424;DHT22;72707;50.120;8.500;2024-03-17T05:00:02;3.20;99.90
3424;DHT22;72707;50.120;8.500;2024-03-17T05:02:28;3.10;99.90
3424;DHT22;72707;50.120;8.500;2024-03-17T05:04:54;3.00;99.90
3424;DHT22;72707;50.120;8.500;2024-03-17T05:07:19;3.00;99.90
3424;DHT22;72707;50.120;8.500;2024-03-17T05:09:44;3.00;1.00
3424;DHT22;72707;50.120;8.500;2024-03-17T05:12:10;3.00;1.00
3424;DHT22;72707;50.120;8.500;2024-03-17T05:14:36;3.10;99.90
3424;DHT22;72707;50.120;8.500;2024-03-17T05:17:01;3.00;99.90
3424;DHT22;72707;50.120;8.500;2024-03-17T05:19:27;3.00;1.00
3424;DHT22;72707;50.120;8.500;2024-03-17T05:21:52;3.00;1.00
3424;DHT22;72707;50.120;8.500;2024-03-17T05:24:18;3.10;1.00
3424;DHT22;72707;50.120;8.500;2024-03-17T05:26:45;3.20;1.00
3424;DHT22;72707;50.120;8.500;2024-03-17T05:29:11;3.20;1.00
3424;DHT22;72707;50.120;8.500;2024-03-17T05:31:36;3.20;1.00
3424;DHT22;72707;50.120;8.500;2024-03-17T05:34:05;3.10;1.00
3424;DHT22;72707;50.120;8.500;2024-03-17T05:36:31;3.10;1.00
3424;DHT22;72707;50.120;8.500;2024-03-17T05:38:58;3.20;1.00
3424;DHT22;72707;50.120;8.500;2024-03-17T05:41:23;3.30;1.00
3424;DHT22;72707;50.120;8.500;2024-03-17T05:43:51;3.30;1.00
3424;DHT22;72707;50.120;8.500;2024-03-17T05:46:17;3.30;1.00
3424;DHT22;72707;50.120;8.500;2024-03-17T05:48:43;3.30;1.00
3424;DHT22;72707;50.120;8.500;2024-03-17T05:51:09;3.30;1.00
3424;DHT22;72707;50.120;8.500;2024-03-17T05:53:36;3.30;1.00
3424;DHT22;72707;50.120;8.500;2024-03-17T05:56:03;3.40;1.00
3424;DHT22;72707;50.120;8.500;2024-03-17T05:58:29;3.40;1.00
3424;DHT22;72707;50.120;8.500;2024-03-17T06:00:55;3.50;1.00
3424;DHT22;72707;50.120;8.500;2024-03-17T06:03:20;3.50;1.00
3424;DHT22;72707;50.120;8.500;2024-03-17T06:05:47;3.60;1.00
3424;DHT22;72707;50.120;8.500;2024-03-17T06:08:13;3.60;1.00
3424;DHT22;72707;50.120;8.500;2024-03-17T06:10:44;3.60;1.00
3424;DHT22;72707;50.120;8.500;2024-03-17T06:13:10;3.60;1.00
3424;DHT22;72707;50.120;8.500;2024-03-17T06:15:40;3.60;1.00
3424;DHT22;72707;50.120;8.500;2024-03-17T06:18:06;3.60;1.00
3424;DHT22;72707;50.120;8.500;2024-03-17T06:20:43;3.70;1.00
3424;DHT22;72707;50.120;8.500;2024-03-17T06:23:09;3.80;1.00
3424;DHT22;72707;50.120;8.500;2024-03-17T06:25:42;3.90;1.00
3424;DHT22;72707;50.120;8.500;2024-03-17T06:28:08;4.00;1.00
3424;DHT22;72707;50.120;8.500;2024-03-17T06:33:02;4.30;99.90
3424;DHT22;72707;50.120;8.500;2024-03-17T06:35:27;4.40;99.90
3424;DHT22;72707;50.120;8.500;2024-03-17T06:37:59;4.40;99.90
3424;DHT22;72707;50.120;8.500;2024-03-17T06:42:50;4.70;1.00
3424;DHT22;72707;50.120;8.500;2024-03-17T06:45:17;4.70;1.00
3424;DHT22;72707;50.120;8.500;2024-03-17T06:47:45;4.90;1.00
3424;DHT22;72707;50.120;8.500;2024-03-17T06:50:11;5.00;1.00
3424;DHT22;72707;50.120;8.500;2024-03-17T06:52:37;5.10;1.00
3424;DHT22;72707;50.120;8.500;2024-03-17T06:57:29;5.40;1.00
3424;DHT22;72707;50.120;8.500;2024-03-17T06:59:54;5.40;1.00
3424;DHT22;72707;50.120;8.500;2024-03-17T07:02:20;5.60;1.00
3424;DHT22;72707;50.120;8.500;2024-03-17T07:04:46;5.60;1.00
3424;DHT22;72707;50.120;8.500;2024-03-17T07:07:12;5.70;1.00
3424;DHT22;72707;50.120;8.500;2024-03-17T07:09:39;5.70;99.90
3424;DHT22;72707;50.120;8.500;2024-03-17T07:12:08;5.90;99.90
3424;DHT22;72707;50.120;8.500;2024-03-17T07:14:34;5.80;99.90
3424;DHT22;72707;50.120;8.500;2024-03-17T07:17:00;5.90;99.90
3424;DHT22;72707;50.120;8.500;2024-03-17T07:19:25;5.90;99.90
3424;DHT22;72707;50.120;8.500;2024-03-17T07:24:17;6.10;99.90
3424;DHT22;72707;50.120;8.500;2024-03-17T07:26:42;6.30;99.90
3424;DHT22;72707;50.120;8.500;2024-03-17T07:29:08;6.50;99.90
3424;DHT22;72707;50.120;8.500;2024-03-17T07:31:34;6.50;90.60
3424;DHT22;72707;50.120;8.500;2024-03-17T07:33:59;6.60;89.20
3424;DHT22;72707;50.120;8.500;2024-03-17T07:36:25;6.70;50.90
3424;DHT22;72707;50.120;8.500;2024-03-17T07:38:50;6.70;18.30
3424;DHT22;72707;50.120;8.500;2024-03-17T07:41:16;6.90;1.00
3424;DHT22;72707;50.120;8.500;2024-03-17T07:46:09;7.20;1.00
3424;DHT22;72707;50.120;8.500;2024-03-17T07:48:38;7.20;1.00
3424;DHT22;72707;50.120;8.500;2024-03-17T07:51:11;7.30;1.00
3424;DHT22;72707;50.120;8.500;2024-03-17T07:53:37;7.40;1.00
3424;DHT22;72707;50.120;8.500;2024-03-17T07:56:05;7.50;1.00
3424;DHT22;72707;50.120;8.500;2024-03-17T07:58:32;7.60;1.00
3424;DHT22;72707;50.120;8.500;2024-03-17T08:01:06;7.70;1.00
3424;DHT22;72707;50.120;8.500;2024-03-17T08:03:35;7.70;1.00
3424;DHT22;72707;50.120;8.500;2024-03-17T08:06:02;7.80;1.00
3424;DHT22;72707;50.120;8.500;2024-03-17T08:08:28;7.90;1.00
3424;DHT22;72707;50.120;8.500;2024-03-17T08:13:21;8.00;1.00
3424;DHT22;72707;50.120;8.500;2024-03-17T08:15:54;8.20;99.90
3424;DHT22;72707;50.120;8.500;2024-03-17T08:18:20;8.30;99.90
3424;DHT22;72707;50.120;8.500;2024-03-17T08:20:45;8.50;99.90
3424;DHT22;72707;50.120;8.500;2024-03-17T08:28:06;8.90;99.90
3424;DHT22;72707;50.120;8.500;2024-03-17T08:30:34;9.20;99.90
3424;DHT22;72707;50.120;8.500;2024-03-17T08:33:00;9.40;99.90
3424;DHT22;72707;50.120;8.500;2024-03-17T08:51:02;10.20;99.90
3424;DHT22;72707;50.120;8.500;2024-03-17T09:06:15;10.30;1.00
3424;DHT22;72707;50.120;8.500;2024-03-17T09:11:12;10.30;1.00
3424;DHT22;72707;50.120;8.500;2024-03-17T09:13:38;10.30;1.00
3424;DHT22;72707;50.120;8.500;2024-03-17T09:16:04;10.40;1.00
3424;DHT22;72707;50.120;8.500;2024-03-17T09:18:31;10.50;1.00
3424;DHT22;72707;50.120;8.500;2024-03-17T09:21:04;10.70;1.00
3424;DHT22;72707;50.120;8.500;2024-03-17T09:23:30;10.80;1.00
3424;DHT22;72707;50.120;8.500;2024-03-17T09:28:29;11.10;1.00
3424;DHT22;72707;50.120;8.500;2024-03-17T09:30:55;10.80;1.00
3424;DHT22;72707;50.120;8.500;2024-03-17T09:33:22;10.80;1.00
3424;DHT22;72707;50.120;8.500;2024-03-17T09:35:59;10.70;1.00
3424;DHT22;72707;50.120;8.500;2024-03-17T09:38:26;10.90;1.00
3424;DHT22;72707;50.120;8.500;2024-03-17T09:40:52;11.00;1.00
3424;DHT22;72707;50.120;8.500;2024-03-17T09:43:24;11.10;1.00
3424;DHT22;72707;50.120;8.500;2024-03-17T09:45:50;11.40;1.00
3424;DHT22;72707;50.120;8.500;2024-03-17T09:48:20;11.60;1.00
3424;DHT22;72707;50.120;8.500;2024-03-17T09:53:29;11.50;1.00
3424;DHT22;72707;50.120;8.500;2024-03-17T09:58:24;11.60;1.00
3424;DHT22;72707;50.120;8.500;2024-03-17T10:00:50;11.50;1.00
3424;DHT22;72707;50.120;8.500;2024-03-17T10:03:45;11.80;1.00
3424;DHT22;72707;50.120;8.500;2024-03-17T10:06:12;11.80;1.00
3424;DHT22;72707;50.120;8.500;2024-03-17T10:08:45;11.80;1.00
3424;DHT22;72707;50.120;8.500;2024-03-17T10:11:16;12.00;1.00
3424;DHT22;72707;50.120;8.500;2024-03-17T10:13:42;12.00;1.00
3424;DHT22;72707;50.120;8.500;2024-03-17T10:16:23;12.10;1.00
3424;DHT22;72707;50.120;8.500;2024-03-17T10:18:49;11.70;1.00
3424;DHT22;72707;50.120;8.500;2024-03-17T10:21:42;12.20;1.00
3424;DHT22;72707;50.120;8.500;2024-03-17T10:24:22;12.60;1.00
3424;DHT22;72707;50.120;8.500;2024-03-17T10:26:50;12.70;1.00
3424;DHT22;72707;50.120;8.500;2024-03-17T10:29:30;12.70;1.00
3424;DHT22;72707;50.120;8.500;2024-03-17T10:32:02;12.70;1.00
3424;DHT22;72707;50.120;8.500;2024-03-17T10:34:29;12.60;1.00
3424;DHT22;72707;50.120;8.500;2024-03-17T10:37:10;12.60;1.00
3424;DHT22;72707;50.120;8.500;2024-03-17T10:39:50;11.90;1.00
3424;DHT22;72707;50.120;8.500;2024-03-17T10:42:24;11.80;1.00
3424;DHT22;72707;50.120;8.500;2024-03-17T10:44:50;12.40;1.00
3424;DHT22;72707;50.120;8.500;2024-03-17T10:47:23;12.40;1.00
3424;DHT22;72707;50.120;8.500;2024-03-17T10:49:53;12.50;1.00
3424;DHT22;72707;50.120;8.500;2024-03-17T10:52:19;12.30;1.00
3424;DHT22;72707;50.120;8.500;2024-03-17T10:54:52;12.20;1.00
3424;DHT22;72707;50.120;8.500;2024-03-17T10:57:32;11.80;1.00
3424;DHT22;72707;50.120;8.500;2024-03-17T11:00:05;12.10;1.00
3424;DHT22;72707;50.120;8.500;2024-03-17T11:02:33;12.30;1.00
3424;DHT22;72707;50.120;8.500;2024-03-17T11:05:24;12.30;1.00
3424;DHT22;72707;50.120;8.500;2024-03-17T11:07:52;12.00;1.00
3424;DHT22;72707;50.120;8.500;2024-03-17T11:10:22;12.30;1.00
3424;DHT22;72707;50.120;8.500;2024-03-17T11:12:49;12.10;1.00
3424;DHT22;72707;50.120;8.500;2024-03-17T11:20:40;12.90;1.00
3424;DHT22;72707;50.120;8.500;2024-03-17T11:23:06;13.10;1.00
3424;DHT22;72707;50.120;8.500;2024-03-17T11:28:01;12.80;1.00
3424;DHT22;72707;50.120;8.500;2024-03-17T11:30:49;13.10;1.00
3424;DHT22;72707;50.120;8.500;2024-03-17T11:38:55;13.00;1.00
3424;DHT22;72707;50.120;8.500;2024-03-17T11:41:39;13.00;1.00
3424;DHT22;72707;50.120;8.500;2024-03-17T11:47:06;13.80;1.00
3424;DHT22;72707;50.120;8.500;2024-03-17T11:49:36;14.40;1.00
3424;DHT22;72707;50.120;8.500;2024-03-17T11:52:15;13.80;1.00
3424;DHT22;72707;50.120;8.500;2024-03-17T11:54:43;14.40;1.00
3424;DHT22;72707;50.120;8.500;2024-03-17T11:57:13;14.10;1.00
3424;DHT22;72707;50.120;8.500;2024-03-17T11:59:40;14.80;1.00
3424;DHT22;72707;50.120;8.500;2024-03-17T12:02:21;15.20;1.00
3424;DHT22;72707;50.120;8.500;2024-03-17T12:09:50;15.30;1.00
3424;DHT22;72707;50.120;8.500;2024-03-17T12:12:34;15.10;1.00
3424;DHT22;72707;50.120;8.500;2024-03-17T12:15:15;14.70;1.00
3424;DHT22;72707;50.120;8.500;2024-03-17T12:20:17;15.40;1.00
3424;DHT22;72707;50.120;8.500;2024-03-17T12:22:43;15.80;1.00
3424;DHT22;72707;50.120;8.500;2024-03-17T12:25:17;15.40;1.00
3424;DHT22;72707;50.120;8.500;2024-03-17T12:27:44;15.10;1.00
3424;DHT22;72707;50.120;8.500;2024-03-17T12:35:12;14.40;1.00
3424;DHT22;72707;50.120;8.500;2024-03-17T12:37:38;14.90;1.00
3424;DHT22;72707;50.120;8.500;2024-03-17T12:40:05;15.30;1.00
3424;DHT22;72707;50.120;8.500;2024-03-17T12:42:32;15.70;1.00
3424;DHT22;72707;50.120;8.500;2024-03-17T12:45:01;15.20;1.00
3424;DHT22;72707;50.120;8.500;2024-03-17T12:47:29;15.80;1.00
3424;DHT22;72707;50.120;8.500;2024-03-17T12:49:59;16.20;1.00
3424;DHT22;72707;50.120;8.500;2024-03-17T12:52:29;16.30;1.00
3424;DHT22;72707;50.120;8.500;2024-03-17T12:55:04;16.10;1.00
3424;DHT22;72707;50.120;8.500;2024-03-17T12:57:52;15.40;1.00
3424;DHT22;72707;50.120;8.500;2024-03-17T13:03:07;15.90;1.00
3424;DHT22;72707;50.120;8.500;2024-03-17T13:05:34;16.10;1.00
3424;DHT22;72707;50.120;8.500;2024-03-17T13:08:00;16.10;1.00
3424;DHT22;72707;50.120;8.500;2024-03-17T13:10:28;14.60;1.00
3424;DHT22;72707;50.120;8.500;2024-03-17T13:13:01;15.30;1.00
3424;DHT22;72707;50.120;8.500;2024-03-17T13:15:27;15.50;1.00
3424;DHT22;72707;50.120;8.500;2024-03-17T13:22:48;15.90;1.00
3424;DHT22;72707;50.120;8.500;2024-03-17T13:25:21;15.60;1.00
3424;DHT22;72707;50.120;8.500;2024-03-17T13:27:49;15.80;1.00
3424;DHT22;72707;50.120;8.500;2024-03-17T13:30:16;15.50;1.00
3424;DHT22;72707;50.120;8.500;2024-03-17T13:32:43;15.40;1.00
3424;DHT22;72707;50.120;8.500;2024-03-17T13:35:19;14.90;1.00
3424;DHT22;72707;50.120;8.500;2024-03-17T13:37:45;15.10;1.00
3424;DHT22;72707;50.120;8.500;2024-03-17T13:40:11;14.80;1.00
3424;DHT22;72707;50.120;8.500;2024-03-17T13:42:38;14.90;1.00
3424;DHT22;72707;50.120;8.500;2024-03-17T13:47:31;15.10;1.00
3424;DHT22;72707;50.120;8.500;2024-03-17T13:52:24;14.80;1.00
3424;DHT22;72707;50.120;8.500;2024-03-17T13:54:49;14.60;1.00
3424;DHT22;72707;50.120;8.500;2024-03-17T13:57:15;15.00;1.00
3424;DHT22;72707;50.120;8.500;2024-03-17T14:02:12;15.00;1.00
3424;DHT22;72707;50.120;8.500;2024-03-17T14:04:39;15.20;1.00
3424;DHT22;72707;50.120;8.500;2024-03-17T14:07:04;14.80;1.00
3424;DHT22;72707;50.120;8.500;2024-03-17T14:11:56;14.40;1.00
3424;DHT22;72707;50.120;8.500;2024-03-17T14:14:23;14.10;1.00
3424;DHT22;72707;50.120;8.500;2024-03-17T14:21:40;14.40;1.00
3424;DHT22;72707;50.120;8.500;2024-03-17T14:26:33;14.40;1.00
3424;DHT22;72707;50.120;8.500;2024-03-17T14:33:52;14.60;1.00
3424;DHT22;72707;50.120;8.500;2024-03-17T14:36:18;14.40;1.00
3424;DHT22;72707;50.120;8.500;2024-03-17T14:41:10;14.50;1.00
3424;DHT22;72707;50.120;8.500;2024-03-17T14:43:37;14.20;1.00
3424;DHT22;72707;50.120;8.500;2024-03-17T14:46:04;14.00;1.00
3424;DHT22;72707;50.120;8.500;2024-03-17T15:00:40;13.80;1.00
3424;DHT22;72707;50.120;8.500;2024-03-17T15:05:33;13.80;1.00
3424;DHT22;72707;50.120;8.500;2024-03-17T15:07:58;13.90;1.00
3424;DHT22;72707;50.120;8.500;2024-03-17T15:10:24;13.90;1.00
3424;DHT22;72707;50.120;8.500;2024-03-17T15:12:50;13.80;1.00
3424;DHT22;72707;50.120;8.500;2024-03-17T15:17:42;13.40;1.00
3424;DHT22;72707;50.120;8.500;2024-03-17T15:20:10;13.30;1.00
3424;DHT22;72707;50.120;8.500;2024-03-17T15:22:48;13.40;1.00
3424;DHT22;72707;50.120;8.500;2024-03-17T15:25:15;13.40;1.00
3424;DHT22;72707;50.120;8.500;2024-03-17T15:27:45;13.50;1.00
3424;DHT22;72707;50.120;8.500;2024-03-17T15:30:15;13.70;1.00
3424;DHT22;72707;50.120;8.500;2024-03-17T15:35:10;14.00;1.00
3424;DHT22;72707;50.120;8.500;2024-03-17T15:40:03;14.30;1.00
3424;DHT22;72707;50.120;8.500;2024-03-17T15:42:29;14.40;1.00
3424;DHT22;72707;50.120;8.500;2024-03-17T15:47:21;13.90;1.00
3424;DHT22;72707;50.120;8.500;2024-03-17T15:49:46;13.70;1.00
3424;DHT22;72707;50.120;8.500;2024-03-17T15:52:12;13.80;1.00
3424;DHT22;72707;50.120;8.500;2024-03-17T15:54:38;13.90;1.00
3424;DHT22;72707;50.120;8.500;2024-03-17T15:57:03;14.20;1.00
3424;DHT22;72707;50.120;8.500;2024-03-17T16:01:55;14.30;1.00
3424;DHT22;72707;50.120;8.500;2024-03-17T16:04:22;14.40;1.00
3424;DHT22;72707;50.120;8.500;2024-03-17T16:09:17;14.20;1.00
3424;DHT22;72707;50.120;8.500;2024-03-17T16:11:43;14.40;1.00
3424;DHT22;72707;50.120;8.500;2024-03-17T16:14:09;14.50;1.00
3424;DHT22;72707;50.120;8.500;2024-03-17T16:21:29;14.40;1.00
3424;DHT22;72707;50.120;8.500;2024-03-17T16:24:06;14.30;1.00
3424;DHT22;72707;50.120;8.500;2024-03-17T16:26:33;14.20;1.00
3424;DHT22;72707;50.120;8.500;2024-03-17T16:36:22;13.50;1.00
3424;DHT22;72707;50.120;8.500;2024-03-17T16:38:48;13.30;1.00
3424;DHT22;72707;50.120;8.500;2024-03-17T16:44:05;12.90;1.00
3424;DHT22;72707;50.120;8.500;2024-03-17T16:46:56;12.80;1.00
3424;DHT22;72707;50.120;8.500;2024-03-17T16:49:33;12.70;1.00
3424;DHT22;72707;50.120;8.500;2024-03-17T16:56:53;12.60;1.00
3424;DHT22;72707;50.120;8.500;2024-03-17T16:59:18;12.60;1.00
3424;DHT22;72707;50.120;8.500;2024-03-17T17:01:48;12.50;1.00
3424;DHT22;72707;50.120;8.500;2024-03-17T17:04:15;12.50;1.00
3424;DHT22;72707;50.120;8.500;2024-03-17T17:11:36;12.10;1.00
3424;DHT22;72707;50.120;8.500;2024-03-17T17:19:04;11.70;1.00
3424;DHT22;72707;50.120;8.500;2024-03-17T17:23:56;11.60;1.00
3424;DHT22;72707;50.120;8.500;2024-03-17T17:26:23;11.60;1.00
3424;DHT22;72707;50.120;8.500;2024-03-17T17:28:55;11.40;1.00
3424;DHT22;72707;50.120;8.500;2024-03-17T17:31:21;11.40;1.00
3424;DHT22;72707;50.120;8.500;2024-03-17T17:33:46;11.30;1.00
3424;DHT22;72707;50.120;8.500;2024-03-17T17:36:12;11.30;9.50
3424;DHT22;72707;50.120;8.500;2024-03-17T17:41:06;11.30;96.00
3424;DHT22;72707;50.120;8.500;2024-03-17T17:43:37;11.20;99.90
3424;DHT22;72707;50.120;8.500;2024-03-17T17:46:10;11.10;99.90
3424;DHT22;72707;50.120;8.500;2024-03-17T17:48:36;11.10;99.90
3424;DHT22;72707;50.120;8.500;2024-03-17T17:51:12;11.00;99.90
3424;DHT22;72707;50.120;8.500;2024-03-17T17:53:41;10.90;99.90
3424;DHT22;72707;50.120;8.500;2024-03-17T17:56:08;10.80;99.90
3424;DHT22;72707;50.120;8.500;2024-03-17T18:01:02;10.80;99.90
3424;DHT22;72707;50.120;8.500;2024-03-17T18:03:28;10.70;99.90
3424;DHT22;72707;50.120;8.500;2024-03-17T18:05:54;10.60;99.90
3424;DHT22;72707;50.120;8.500;2024-03-17T18:08:23;10.70;99.90
3424;DHT22;72707;50.120;8.500;2024-03-17T18:10:50;10.70;99.90
3424;DHT22;72707;50.120;8.500;2024-03-17T18:13:16;10.60;99.90
3424;DHT22;72707;50.120;8.500;2024-03-17T18:25:32;10.30;99.90
3424;DHT22;72707;50.120;8.500;2024-03-17T18:28:01;10.10;99.90
3424;DHT22;72707;50.120;8.500;2024-03-17T18:30:30;10.10;99.90
3424;DHT22;72707;50.120;8.500;2024-03-17T18:32:55;10.10;99.90
3424;DHT22;72707;50.120;8.500;2024-03-17T18:35:23;10.20;99.90
3424;DHT22;72707;50.120;8.500;2024-03-17T18:40:15;10.20;99.90
3424;DHT22;72707;50.120;8.500;2024-03-17T18:42:43;10.20;99.90
3424;DHT22;72707;50.120;8.500;2024-03-17T18:50:04;10.00;99.90
3424;DHT22;72707;50.120;8.500;2024-03-17T18:52:32;10.20;99.90
3424;DHT22;72707;50.120;8.500;2024-03-17T18:59:53;10.20;99.90
3424;DHT22;72707;50.120;8.500;2024-03-17T19:02:19;10.20;99.90
3424;DHT22;72707;50.120;8.500;2024-03-17T19:04:46;10.10;99.90
3424;DHT22;72707;50.120;8.500;2024-03-17T19:07:12;10.00;99.90
3424;DHT22;72707;50.120;8.500;2024-03-17T19:12:04;9.80;99.90
3424;DHT22;72707;50.120;8.500;2024-03-17T19:14:29;9.80;99.90
3424;DHT22;72707;50.120;8.500;2024-03-17T19:16:55;9.80;99.90
3424;DHT22;72707;50.120;8.500;2024-03-17T19:21:47;9.70;99.90
3424;DHT22;72707;50.120;8.500;2024-03-17T19:24:17;9.70;99.90
3424;DHT22;72707;50.120;8.500;2024-03-17T19:31:35;9.50;1.00
3424;DHT22;72707;50.120;8.500;2024-03-17T19:38:56;9.30;1.00
3424;DHT22;72707;50.120;8.500;2024-03-17T19:46:16;9.00;1.00
3424;DHT22;72707;50.120;8.500;2024-03-17T19:48:53;9.00;1.00
3424;DHT22;72707;50.120;8.500;2024-03-17T19:51:22;8.90;1.00
3424;DHT22;72707;50.120;8.500;2024-03-17T19:53:48;8.90;1.00
3424;DHT22;72707;50.120;8.500;2024-03-17T19:58:45;8.80;1.00
3424;DHT22;72707;50.120;8.500;2024-03-17T20:01:12;8.70;1.00
3424;DHT22;72707;50.120;8.500;2024-03-17T20:03:40;8.70;1.00
3424;DHT22;72707;50.120;8.500;2024-03-17T20:06:12;8.70;1.00
3424;DHT22;72707;50.120;8.500;2024-03-17T20:08:39;8.60;1.00
3424;DHT22;72707;50.120;8.500;2024-03-17T20:18:22;8.50;28.50
3424;DHT22;72707;50.120;8.500;2024-03-17T20:20:48;8.60;34.20
3424;DHT22;72707;50.120;8.500;2024-03-17T20:25:40;8.60;4.40
3424;DHT22;72707;50.120;8.500;2024-03-17T20:28:06;8.60;54.10
3424;DHT22;72707;50.120;8.500;2024-03-17T20:35:26;8.40;99.90
3424;DHT22;72707;50.120;8.500;2024-03-17T20:37:52;8.40;99.90
3424;DHT22;72707;50.120;8.500;2024-03-17T20:40:18;8.40;99.90
3424;DHT22;72707;50.120;8.500;2024-03-17T20:42:51;8.30;99.90
3424;DHT22;72707;50.120;8.500;2024-03-17T20:45:17;8.30;99.90
3424;DHT22;72707;50.120;8.500;2024-03-17T20:50:16;8.20;99.90
3424;DHT22;72707;50.120;8.500;2024-03-17T21:00:03;8.10;99.90
3424;DHT22;72707;50.120;8.500;2024-03-17T21:02:32;8.10;99.90
3424;DHT22;72707;50.120;8.500;2024-03-17T21:04:58;8.00;99.90
3424;DHT22;72707;50.120;8.500;2024-03-17T21:09:52;7.90;99.90
3424;DHT22;72707;50.120;8.500;2024-03-17T21:12:17;7.90;1.00
3424;DHT22;72707;50.120;8.500;2024-03-17T21:17:09;7.80;1.00